To NAV CANADA Home Page Login to a new session Search on AWWS site Feedback and Comments Disclaimer Vers la page française équivalente Tips FAQ What's new on the site To the Forecasts and Observations / NOTAM section To "File a Flight Plan" website Publications and other links Update of the User's profile FIC Telephone Numbers My Weather Data Folder Route Weather Data Regional Weather Data Local Weather Data To the Forecasts and Observations / NOTAM section
Request Generated 08/31/2016 at 15:55:48 UTC . Weather information available at that time is displayed.

METAR/TAF

If you find any discrepancies between the coded METAR/TAF and the plain language METAR/TAF please use the coded METAR/TAF. LWIS bulletins are not decoded in plain language.

VANCOUVER INTL/BC    (show WxCam)

SPECI CYVR 311516Z 11007KT 15SM -RA FEW020 SCT035 BKN046 OVC055 16/14 A2994 RMK SC2SC2SC3SC1 VIS N 12SM SLP139 DENSITY ALT 100FT=
SPECI
LOCATION
CYVR - VANCOUVER INTL/BC
DATE - TIME
31 AUGUST 2016 - 1516 UTC
WIND
110 TRUE @ 7  KNOTS
VISIBILITY
15 STAT.  MILES
RUNWAY VISUAL RANGE
WEATHER
LIGHT RAIN
CLOUDINESS
FEW CLOUDS (1/8 - 2/8) 2000  FT
SCATTERED CLOUDS (3/8 - 4/8) 3500  FT
BROKEN CLOUDS (5/8 - 7/8) 4600  FT
OVERCAST 5500  FT
TEMP / DEWPOINT
16 C / 14 C
ALTIMETER
29.94 IN HG
RECENT WEATHER
WIND SHEAR

METAR CYVR 311500Z 08007KT 15SM FEW020 BKN045 BKN055 OVC070 16/14 A2993 RMK SC2SC3SC2AC1 SLP138 DENSITY ALT 100FT=
METAR
LOCATION
CYVR - VANCOUVER INTL/BC
DATE - TIME
31 AUGUST 2016 - 1500 UTC
WIND
80 TRUE @ 7  KNOTS
VISIBILITY
15 STAT.  MILES
RUNWAY VISUAL RANGE
WEATHER
CLOUDINESS
FEW CLOUDS (1/8 - 2/8) 2000  FT
BROKEN CLOUDS (5/8 - 7/8) 4500  FT
BROKEN CLOUDS (5/8 - 7/8) 5500  FT
OVERCAST 7000  FT
TEMP / DEWPOINT
16 C / 14 C
ALTIMETER
29.93 IN HG
RECENT WEATHER
WIND SHEAR

METAR CYVR 311400Z CCA 08007KT 15SM -SHRA FEW020 BKN046 OVC075 16/14 A2994 RMK SC1SC6AC1 CVCTV CLD EMBD PCPN VRY LGT SLP139 DENSITY ALT 100FT=
METAR
LOCATION
CYVR - VANCOUVER INTL/BC
DATE - TIME
31 AUGUST 2016 - 1400 UTC
WIND
80 TRUE @ 7  KNOTS
VISIBILITY
15 STAT.  MILES
RUNWAY VISUAL RANGE
WEATHER
LIGHT RAIN SHOWER
CLOUDINESS
FEW CLOUDS (1/8 - 2/8) 2000  FT
BROKEN CLOUDS (5/8 - 7/8) 4600  FT
OVERCAST 7500  FT
TEMP / DEWPOINT
16 C / 14 C
ALTIMETER
29.94 IN HG
RECENT WEATHER
WIND SHEAR

METAR CYVR 311400Z 08007KT 15SM -SHRA FEW020 BKN046 OVC075 16/14 A2994 RMK SC1SC6AC1 PCPN VRY LGT SLP139 DENSITY ALT 100FT=
METAR
LOCATION
CYVR - VANCOUVER INTL/BC
DATE - TIME
31 AUGUST 2016 - 1400 UTC
WIND
80 TRUE @ 7  KNOTS
VISIBILITY
15 STAT.  MILES
RUNWAY VISUAL RANGE
WEATHER
LIGHT RAIN SHOWER
CLOUDINESS
FEW CLOUDS (1/8 - 2/8) 2000  FT
BROKEN CLOUDS (5/8 - 7/8) 4600  FT
OVERCAST 7500  FT
TEMP / DEWPOINT
16 C / 14 C
ALTIMETER
29.94 IN HG
RECENT WEATHER
WIND SHEAR

SPECI CYVR 311351Z 08007KT 15SM -SHRA FEW005 FEW020 BKN049 OVC075 16/14 A2994 RMK CF1SC1SC5AC1 CVCTV CLD EMBD SLP139 DENSITY ALT 100FT=
SPECI
LOCATION
CYVR - VANCOUVER INTL/BC
DATE - TIME
31 AUGUST 2016 - 1351 UTC
WIND
80 TRUE @ 7  KNOTS
VISIBILITY
15 STAT.  MILES
RUNWAY VISUAL RANGE
WEATHER
LIGHT RAIN SHOWER
CLOUDINESS
FEW CLOUDS (1/8 - 2/8) 500  FT
FEW CLOUDS (1/8 - 2/8) 2000  FT
BROKEN CLOUDS (5/8 - 7/8) 4900  FT
OVERCAST 7500  FT
TEMP / DEWPOINT
16 C / 14 C
ALTIMETER
29.94 IN HG
RECENT WEATHER
WIND SHEAR

SPECI CYVR 311331Z 08008KT 15SM FEW005 FEW025 BKN052 BKN061 OVC095 16/14 A2994 RMK CF1SC1SC3SC2AC1 SLP139=
SPECI
LOCATION
CYVR - VANCOUVER INTL/BC
DATE - TIME
31 AUGUST 2016 - 1331 UTC
WIND
80 TRUE @ 8  KNOTS
VISIBILITY
15 STAT.  MILES
RUNWAY VISUAL RANGE
WEATHER
CLOUDINESS
FEW CLOUDS (1/8 - 2/8) 500  FT
FEW CLOUDS (1/8 - 2/8) 2500  FT
BROKEN CLOUDS (5/8 - 7/8) 5200  FT
BROKEN CLOUDS (5/8 - 7/8) 6100  FT
OVERCAST 9500  FT
TEMP / DEWPOINT
16 C / 14 C
ALTIMETER
29.94 IN HG
RECENT WEATHER
WIND SHEAR

METAR CYVR 311300Z 07010KT 12SM -SHRA FEW020 BKN047 BKN077 OVC110 16/14 A2993 RMK SC2SC3AC1AS2 SLP138=
METAR
LOCATION
CYVR - VANCOUVER INTL/BC
DATE - TIME
31 AUGUST 2016 - 1300 UTC
WIND
70 TRUE @ 10  KNOTS
VISIBILITY
12 STAT.  MILES
RUNWAY VISUAL RANGE
WEATHER
LIGHT RAIN SHOWER
CLOUDINESS
FEW CLOUDS (1/8 - 2/8) 2000  FT
BROKEN CLOUDS (5/8 - 7/8) 4700  FT
BROKEN CLOUDS (5/8 - 7/8) 7700  FT
OVERCAST 11000  FT
TEMP / DEWPOINT
16 C / 14 C
ALTIMETER
29.93 IN HG
RECENT WEATHER
WIND SHEAR

TAF CYVR 311438Z 3115/0118 08007KT P6SM SCT020 BKN040 OVC070 TEMPO 3115/3120 5SM -SHRA BR SCT008 BKN020 OVC050 BECMG 3118/3120 13010KT FM312000 13010KT P6SM SCT020 BKN050 OVC080 TEMPO 3120/0109 P6SM -SHRA FEW008 BKN020 OVC050 FM010900 11008KT P6SM FEW020 SCT050 FM011500 12010KT P6SM -SHRA SCT015 BKN030 OVC050 RMK NXT FCST BY 311800Z=
TAF
LOCATION

CYVR - VANCOUVER INTL/BC
VALIDITY [UTC]
31 AUG - 1438 to
01 SEP - 1800
 
TIMES
[UTC]
WIND
[DEGREES TRUE]
VISIBILITY
[STAT. MILES]
WEATHER
CLOUDINESS
[FEET AGL]
 
31 AUG - 1500 to
31 AUG - 2000
80 @ 7 KNOTS
6+
NIL
2000 SCATTERED
4000 BROKEN
7000 OVERCAST
TEMPORARY CHANGES
31 AUG - 1500 to
31 AUG - 2000
 
5
LIGHT RAIN SHOWER
MIST
800 SCATTERED
2000 BROKEN
5000 OVERCAST
BECOMING
31 AUG - 1800 to
31 AUG - 2000
130 @ 10 KNOTS
 
 
 
 
31 AUG - 2000 to
01 SEP - 0900
130 @ 10 KNOTS
6+
NIL
2000 SCATTERED
5000 BROKEN
8000 OVERCAST
TEMPORARY CHANGES
31 AUG - 2000 to
01 SEP - 0900
 
6+
LIGHT RAIN SHOWER
800 FEW
5000 FEW
2000 BROKEN
5000 OVERCAST
 
01 SEP - 0900 to
01 SEP - 1500
110 @ 8 KNOTS
6+
NIL
2000 FEW
5000 SCATTERED
 
01 SEP - 1500 to
01 SEP - 1800
120 @ 10 KNOTS
6+
LIGHT RAIN SHOWER
1500 SCATTERED
3000 BROKEN
5000 OVERCAST
REMARKS
THE NEXT FORECAST WILL BE ISSUED BY 1800 UTC ON DAY 31


Your time UTC time
Weather data provided by Environment Canada and NAV CANADA